createdAt,value
2022-09-18T00:01:10.789Z,1.70
2022-09-18T00:03:39.151Z,1.50
2022-09-18T00:06:09.245Z,1.43
2022-09-18T00:08:38.459Z,1.50
2022-09-18T00:11:09.753Z,1.53
2022-09-18T00:13:39.068Z,1.50
2022-09-18T00:16:08.249Z,1.77
2022-09-18T00:18:36.155Z,1.50
2022-09-18T00:21:05.806Z,1.53
2022-09-18T00:23:33.795Z,1.40
2022-09-18T00:26:01.554Z,1.73
2022-09-18T00:28:30.733Z,1.67
2022-09-18T00:31:05.533Z,1.60
2022-09-18T00:33:33.675Z,1.53
2022-09-18T00:36:03.282Z,1.60
2022-09-18T00:38:32.714Z,1.60
2022-09-18T00:41:02.041Z,1.60
2022-09-18T00:43:34.488Z,1.67
2022-09-18T00:46:25.517Z,1.67
2022-09-18T00:49:03.084Z,1.70
2022-09-18T00:51:34.370Z,1.27
2022-09-18T00:54:08.031Z,1.50
2022-09-18T00:56:36.165Z,1.50
2022-09-18T00:59:05.626Z,1.20
2022-09-18T01:01:33.410Z,1.50
2022-09-18T01:04:01.203Z,1.73
2022-09-18T01:06:37.665Z,1.40
2022-09-18T01:09:27.755Z,1.23
2022-09-18T01:12:03.162Z,1.20
2022-09-18T01:14:42.164Z,1.20
2022-09-18T01:17:18.667Z,1.43
2022-09-18T01:20:26.380Z,1.30
2022-09-18T01:23:14.282Z,1.40
2022-09-18T01:25:57.098Z,1.23
2022-09-18T01:28:34.032Z,1.37
2022-09-18T01:31:09.277Z,1.60
2022-09-18T01:33:41.114Z,1.40
2022-09-18T01:36:11.970Z,1.27
2022-09-18T01:38:43.726Z,1.47
2022-09-18T01:41:15.555Z,1.53
2022-09-18T01:43:49.517Z,1.43
2022-09-18T01:46:20.862Z,1.47
2022-09-18T01:48:54.442Z,1.67
2022-09-18T01:51:25.169Z,1.37
2022-09-18T01:53:58.651Z,1.83
2022-09-18T01:56:29.400Z,1.80
2022-09-18T01:59:03.707Z,1.90
2022-09-18T02:01:44.046Z,1.97
2022-09-18T02:04:17.363Z,1.93
2022-09-18T02:06:52.681Z,1.47
2022-09-18T02:09:20.570Z,1.77
2022-09-18T02:11:51.825Z,1.50
2022-09-18T02:14:26.827Z,1.60
2022-09-18T02:17:08.368Z,1.70
2022-09-18T02:19:42.396Z,1.83
2022-09-18T02:22:13.529Z,1.60
2022-09-18T02:24:43.526Z,1.70
2022-09-18T02:27:14.716Z,1.63
2022-09-18T02:29:46.253Z,2.20
2022-09-18T02:32:15.208Z,2.10
2022-09-18T02:34:43.260Z,1.50
2022-09-18T02:37:28.391Z,1.70
2022-09-18T02:40:11.070Z,1.70
2022-09-18T02:42:48.684Z,1.70
2022-09-18T02:45:26.332Z,1.90
2022-09-18T02:48:18.303Z,1.93
2022-09-18T02:50:56.118Z,1.70
2022-09-18T02:53:30.705Z,1.50
2022-09-18T02:56:04.306Z,1.77
2022-09-18T02:58:40.580Z,1.67
2022-09-18T03:01:13.868Z,1.80
2022-09-18T03:03:42.712Z,1.80
2022-09-18T03:06:12.193Z,1.63
2022-09-18T03:08:40.331Z,1.83
2022-09-18T03:11:09.180Z,1.73
2022-09-18T03:13:37.203Z,1.60
2022-09-18T03:16:04.992Z,1.60
2022-09-18T03:18:34.113Z,1.60
2022-09-18T03:21:01.845Z,2.00
2022-09-18T03:23:29.636Z,1.77
2022-09-18T03:26:08.787Z,1.50
2022-09-18T03:28:36.579Z,1.70
2022-09-18T03:31:04.583Z,1.77
2022-09-18T03:33:35.137Z,1.80
2022-09-18T03:36:03.383Z,1.63
2022-09-18T03:38:31.618Z,2.00
2022-09-18T03:40:59.693Z,1.60
2022-09-18T03:43:27.702Z,2.00
2022-09-18T03:45:55.419Z,2.00
2022-09-18T03:48:23.248Z,2.07
2022-09-18T03:50:53.349Z,2.07
2022-09-18T03:53:22.378Z,2.10
2022-09-18T03:56:07.981Z,1.50
2022-09-18T03:58:35.710Z,1.63
2022-09-18T04:01:21.418Z,1.77
2022-09-18T04:04:24.251Z,1.53
2022-09-18T04:07:11.852Z,1.80
2022-09-18T04:10:09.336Z,1.80
2022-09-18T04:12:39.673Z,1.87
2022-09-18T04:15:16.475Z,1.40
2022-09-18T04:17:44.838Z,2.10
2022-09-18T04:20:13.053Z,1.60
2022-09-18T04:22:45.274Z,1.70
2022-09-18T04:25:13.055Z,1.77
2022-09-18T04:27:41.508Z,1.70
2022-09-18T04:30:10.636Z,1.60
2022-09-18T04:32:43.090Z,2.10
2022-09-18T04:35:11.212Z,1.40
2022-09-18T04:37:39.478Z,1.87
2022-09-18T04:40:09.580Z,1.80
2022-09-18T04:42:38.098Z,1.73
2022-09-18T04:45:08.595Z,1.60
2022-09-18T04:47:36.359Z,1.77
2022-09-18T04:50:08.708Z,1.60
2022-09-18T04:52:36.709Z,1.50
2022-09-18T04:55:05.685Z,1.50
2022-09-18T04:57:34.915Z,1.67
2022-09-18T05:00:04.501Z,1.70
2022-09-18T05:02:32.994Z,1.80
2022-09-18T05:05:00.732Z,1.90
2022-09-18T05:07:33.980Z,1.60
2022-09-18T05:10:02.083Z,1.80
2022-09-18T05:12:32.137Z,1.60
2022-09-18T05:15:01.360Z,2.00
2022-09-18T05:17:29.306Z,1.90
2022-09-18T05:20:02.513Z,1.67
2022-09-18T05:22:37.805Z,1.67
2022-09-18T05:25:10.568Z,1.70
2022-09-18T05:27:38.912Z,2.10
2022-09-18T05:30:10.999Z,1.77
2022-09-18T05:33:01.490Z,1.57
2022-09-18T05:35:32.878Z,2.00
2022-09-18T05:38:01.373Z,1.83
2022-09-18T05:40:33.641Z,1.90
2022-09-18T05:43:02.954Z,1.60
2022-09-18T05:45:34.680Z,1.77
2022-09-18T05:48:07.995Z,1.70
2022-09-18T05:50:37.343Z,1.63
2022-09-18T05:53:07.998Z,1.67
2022-09-18T05:55:44.808Z,1.50
2022-09-18T05:58:14.297Z,1.70
2022-09-18T06:00:45.604Z,1.80
2022-09-18T06:03:20.323Z,1.67
2022-09-18T06:06:00.345Z,2.17
2022-09-18T06:08:28.134Z,2.20
2022-09-18T06:10:56.006Z,1.90
2022-09-18T06:13:23.791Z,1.80
2022-09-18T06:15:56.075Z,2.07
2022-09-18T06:18:51.107Z,1.83
2022-09-18T06:21:19.973Z,1.70
2022-09-18T06:23:47.949Z,2.23
2022-09-18T06:26:25.086Z,2.00
2022-09-18T06:28:52.829Z,1.60
2022-09-18T06:31:22.207Z,1.67
2022-09-18T06:33:57.389Z,1.57
2022-09-18T06:36:25.236Z,2.20
2022-09-18T06:39:22.077Z,1.73
2022-09-18T06:41:52.870Z,2.13
2022-09-18T06:44:27.289Z,1.43
2022-09-18T06:47:04.832Z,1.80
2022-09-18T06:49:40.651Z,2.07
2022-09-18T06:52:08.403Z,1.80
2022-09-18T06:54:38.085Z,2.00
2022-09-18T06:57:07.865Z,2.00
2022-09-18T06:59:37.748Z,2.20
2022-09-18T07:02:18.717Z,1.97
2022-09-18T07:05:00.932Z,1.70
2022-09-18T07:07:28.836Z,2.27
2022-09-18T07:09:58.291Z,2.20
2022-09-18T07:12:36.945Z,2.67
2022-09-18T07:15:07.416Z,2.17
2022-09-18T07:17:37.279Z,2.40
2022-09-18T07:20:06.535Z,2.20
2022-09-18T07:22:44.941Z,2.30
2022-09-18T07:25:15.127Z,2.63
2022-09-18T07:27:44.712Z,2.30
2022-09-18T07:30:14.689Z,2.70
2022-09-18T07:32:45.708Z,2.20
2022-09-18T07:35:17.362Z,2.23
2022-09-18T07:37:45.228Z,1.90
2022-09-18T07:40:20.459Z,1.93
2022-09-18T07:43:10.838Z,1.83
2022-09-18T07:45:45.451Z,1.77
2022-09-18T07:48:14.856Z,1.90
2022-09-18T07:50:47.499Z,2.33
2022-09-18T07:53:17.590Z,1.93
2022-09-18T07:55:48.277Z,1.73
2022-09-18T07:58:16.072Z,1.83
2022-09-18T08:00:56.999Z,2.17
2022-09-18T08:03:27.350Z,1.90
2022-09-18T08:06:08.666Z,1.80
2022-09-18T08:08:37.132Z,1.70
2022-09-18T08:11:16.067Z,1.80
2022-09-18T08:13:55.547Z,1.73
2022-09-18T08:16:46.498Z,1.70
2022-09-18T08:19:47.920Z,1.73
2022-09-18T08:22:27.317Z,1.93
2022-09-18T08:24:57.387Z,2.00
2022-09-18T08:27:25.144Z,2.20
2022-09-18T08:29:53.958Z,2.20
2022-09-18T08:32:24.040Z,1.80
2022-09-18T08:34:54.563Z,1.77
2022-09-18T08:37:22.572Z,1.93
2022-09-18T08:40:31.787Z,1.90
2022-09-18T08:43:14.994Z,1.80
2022-09-18T08:45:56.016Z,2.07
2022-09-18T08:48:29.005Z,1.53
2022-09-18T08:51:04.746Z,1.97
2022-09-18T08:53:40.026Z,1.60
2022-09-18T08:56:40.798Z,1.63
2022-09-18T08:59:30.431Z,1.90
2022-09-18T09:02:14.473Z,2.20
2022-09-18T09:04:43.224Z,1.77
2022-09-18T09:07:26.040Z,1.90
2022-09-18T09:10:04.419Z,2.13
2022-09-18T09:12:44.297Z,1.90
2022-09-18T09:15:25.547Z,2.03
2022-09-18T09:18:13.921Z,2.20
2022-09-18T09:20:50.507Z,1.90
2022-09-18T09:23:30.012Z,1.70
2022-09-18T09:26:06.544Z,2.10
2022-09-18T09:29:01.333Z,2.10
2022-09-18T09:31:56.814Z,1.97
2022-09-18T09:34:44.447Z,1.57
2022-09-18T09:37:40.394Z,1.63
2022-09-18T09:40:19.120Z,1.43
2022-09-18T09:42:54.265Z,1.67
2022-09-18T09:45:29.512Z,1.40
2022-09-18T09:48:07.715Z,2.03
2022-09-18T09:50:46.080Z,1.43
2022-09-18T09:53:14.595Z,1.50
2022-09-18T09:55:53.234Z,1.50
2022-09-18T09:58:36.080Z,1.60
2022-09-18T10:01:12.661Z,1.80
2022-09-18T10:03:48.853Z,1.60
2022-09-18T10:06:40.121Z,1.60
2022-09-18T10:09:17.855Z,1.50
2022-09-18T10:11:57.435Z,1.50
2022-09-18T10:14:29.220Z,1.47
2022-09-18T10:16:59.055Z,1.87
2022-09-18T10:19:35.599Z,1.60
2022-09-18T10:22:07.433Z,1.80
2022-09-18T10:24:46.963Z,1.60
2022-09-18T10:27:19.005Z,1.50
2022-09-18T10:29:47.208Z,1.53
2022-09-18T10:32:36.719Z,1.43
2022-09-18T10:35:45.400Z,1.53
2022-09-18T10:38:29.527Z,1.60
2022-09-18T10:41:20.093Z,1.40
2022-09-18T10:43:57.181Z,1.70
2022-09-18T10:46:30.252Z,1.43
2022-09-18T10:49:00.349Z,1.70
2022-09-18T10:51:29.264Z,1.63
2022-09-18T10:54:04.580Z,1.43
2022-09-18T10:56:49.935Z,1.50
2022-09-18T10:59:35.895Z,1.37
2022-09-18T11:02:07.425Z,1.60
2022-09-18T11:04:36.949Z,1.53
2022-09-18T11:07:07.643Z,1.40
2022-09-18T11:09:40.059Z,1.57
2022-09-18T11:12:21.949Z,1.67
2022-09-18T11:14:57.005Z,1.70
2022-09-18T11:17:28.257Z,1.50
2022-09-18T11:19:58.388Z,1.50
2022-09-18T11:22:42.653Z,1.57
2022-09-18T11:25:21.459Z,1.70
2022-09-18T11:27:54.017Z,1.30
2022-09-18T11:30:27.606Z,1.50
2022-09-18T11:33:00.379Z,1.70
2022-09-18T11:35:33.708Z,1.47
2022-09-18T11:38:08.173Z,1.87
2022-09-18T11:40:45.048Z,1.63
2022-09-18T11:43:23.413Z,1.37
2022-09-18T11:46:02.068Z,1.30
2022-09-18T11:48:35.570Z,1.40
2022-09-18T11:51:06.473Z,1.50
2022-09-18T11:53:40.707Z,1.47
2022-09-18T11:56:15.282Z,1.23
2022-09-18T11:58:47.969Z,1.70
2022-09-18T12:01:26.947Z,1.40
2022-09-18T12:04:01.868Z,2.97
2022-09-18T12:06:37.303Z,1.60
2022-09-18T12:09:10.743Z,1.20
2022-09-18T12:11:49.817Z,1.80
2022-09-18T12:14:23.689Z,2.10
2022-09-18T12:17:19.039Z,1.70
2022-09-18T12:19:51.191Z,2.20
2022-09-18T12:22:27.478Z,1.60
2022-09-18T12:24:55.770Z,1.53
2022-09-18T12:27:50.332Z,1.73
2022-09-18T12:30:20.267Z,2.00
2022-09-18T12:33:13.548Z,1.80
2022-09-18T12:36:07.433Z,1.97
2022-09-18T12:38:51.086Z,2.10
2022-09-18T12:41:31.570Z,1.80
2022-09-18T12:44:13.325Z,2.03
2022-09-18T12:47:00.715Z,2.30
2022-09-18T12:49:46.847Z,1.87
2022-09-18T12:52:30.324Z,2.00
2022-09-18T12:55:16.104Z,1.97
2022-09-18T12:57:57.073Z,1.70
2022-09-18T13:00:25.521Z,1.60
2022-09-18T13:02:56.041Z,1.60
2022-09-18T13:05:30.869Z,1.37
2022-09-18T13:08:06.326Z,1.60
2022-09-18T13:10:39.137Z,1.10
2022-09-18T13:13:14.905Z,1.97
2022-09-18T13:15:47.086Z,1.67
2022-09-18T13:18:33.431Z,1.63
2022-09-18T13:21:06.526Z,1.60
2022-09-18T13:23:38.881Z,2.23
2022-09-18T13:26:09.288Z,1.60
2022-09-18T13:28:37.691Z,2.10
2022-09-18T13:31:26.297Z,1.70
2022-09-18T13:33:57.959Z,2.20
2022-09-18T13:36:29.863Z,1.73
2022-09-18T13:39:01.555Z,1.80
2022-09-18T13:41:30.297Z,1.43
2022-09-18T13:44:00.688Z,1.30
2022-09-18T13:46:39.621Z,1.70
2022-09-18T13:49:20.408Z,1.93
2022-09-18T13:51:49.741Z,1.90
2022-09-18T13:54:29.635Z,1.70
2022-09-18T13:57:31.537Z,1.50
2022-09-18T14:00:06.765Z,1.83
2022-09-18T14:02:40.973Z,1.77
2022-09-18T14:05:33.626Z,1.77
2022-09-18T14:08:38.982Z,1.63
2022-09-18T14:11:17.581Z,1.60
2022-09-18T14:13:53.992Z,1.60
2022-09-18T14:16:29.205Z,1.30
2022-09-18T14:19:01.990Z,1.50
2022-09-18T14:21:32.834Z,1.60
2022-09-18T14:24:19.160Z,1.80
2022-09-18T14:26:59.672Z,1.50
2022-09-18T14:29:30.693Z,1.50
2022-09-18T14:31:59.866Z,1.90
2022-09-18T14:34:33.713Z,1.67
2022-09-18T14:37:03.614Z,1.40
2022-09-18T14:39:36.145Z,1.50
2022-09-18T14:42:06.159Z,1.33
2022-09-18T14:44:35.327Z,1.60
2022-09-18T14:47:06.279Z,1.57
2022-09-18T14:49:35.858Z,1.50
2022-09-18T14:52:05.040Z,1.40
2022-09-18T14:54:40.869Z,1.67
2022-09-18T14:57:15.609Z,1.93
2022-09-18T14:59:43.843Z,1.60
2022-09-18T15:02:18.935Z,1.70
2022-09-18T15:04:47.174Z,1.63
2022-09-18T15:07:18.642Z,1.80
2022-09-18T15:09:49.925Z,1.60
2022-09-18T15:12:20.432Z,1.70
2022-09-18T15:14:48.302Z,1.60
2022-09-18T15:17:20.167Z,1.40
2022-09-18T15:19:59.492Z,1.50
2022-09-18T15:22:28.404Z,1.37
2022-09-18T15:25:00.783Z,2.63
2022-09-18T15:27:30.019Z,1.43
2022-09-18T15:30:01.329Z,1.60
2022-09-18T15:32:37.668Z,1.50
2022-09-18T15:35:08.703Z,1.87
2022-09-18T15:37:38.319Z,1.87
2022-09-18T15:40:10.447Z,2.00
2022-09-18T15:42:41.410Z,1.77
2022-09-18T15:45:23.422Z,1.83
2022-09-18T15:47:51.396Z,1.90
2022-09-18T15:50:37.994Z,1.67
2022-09-18T15:53:19.281Z,1.60
2022-09-18T15:55:55.995Z,2.00
2022-09-18T15:58:33.540Z,4.60
2022-09-18T16:01:04.311Z,3.67
2022-09-18T16:03:33.203Z,1.60
2022-09-18T16:06:05.016Z,2.10
2022-09-18T16:08:34.992Z,1.37
2022-09-18T16:11:06.397Z,1.73
2022-09-18T16:13:37.715Z,1.57
2022-09-18T16:16:25.317Z,1.90
2022-09-18T16:18:56.672Z,1.80
2022-09-18T16:21:28.085Z,1.77
2022-09-18T16:23:59.162Z,1.43
2022-09-18T16:26:31.722Z,2.00
2022-09-18T16:29:02.297Z,1.63
2022-09-18T16:31:32.206Z,1.63
2022-09-18T16:34:02.206Z,1.57
2022-09-18T16:36:34.252Z,2.03
2022-09-18T16:39:05.158Z,1.93
2022-09-18T16:41:35.105Z,1.87
2022-09-18T16:44:05.181Z,2.10
2022-09-18T16:46:38.707Z,1.63
2022-09-18T16:49:06.568Z,1.80
2022-09-18T16:51:34.431Z,1.90
2022-09-18T16:54:02.567Z,2.10
2022-09-18T16:56:34.762Z,2.13
2022-09-18T16:59:06.031Z,1.70
2022-09-18T17:01:54.190Z,1.83
2022-09-18T17:04:24.292Z,1.83
2022-09-18T17:06:52.126Z,2.10
2022-09-18T17:09:21.295Z,2.30
2022-09-18T17:11:49.077Z,2.30
2022-09-18T17:14:18.625Z,2.50
2022-09-18T17:16:46.585Z,2.47
2022-09-18T17:19:14.369Z,2.80
2022-09-18T17:21:42.521Z,2.80
2022-09-18T17:24:11.213Z,2.80
2022-09-18T17:26:40.587Z,3.27
2022-09-18T17:29:10.384Z,2.80
2022-09-18T17:31:39.937Z,2.93
2022-09-18T17:34:08.356Z,2.90
2022-09-18T17:36:36.850Z,2.70
2022-09-18T17:39:05.504Z,2.40
2022-09-18T17:41:34.363Z,2.30
2022-09-18T17:44:02.637Z,2.47
2022-09-18T17:46:30.559Z,2.23
2022-09-18T17:49:00.586Z,1.90
2022-09-18T17:51:29.435Z,1.93
2022-09-18T17:53:59.986Z,1.73
2022-09-18T17:56:29.963Z,1.30
2022-09-18T17:58:59.819Z,1.97
2022-09-18T18:01:29.540Z,2.03
2022-09-18T18:03:57.422Z,2.23
2022-09-18T18:06:26.949Z,2.50
2022-09-18T18:08:56.070Z,2.10
2022-09-18T18:11:25.180Z,2.73
2022-09-18T18:13:54.893Z,2.60
2022-09-18T18:16:25.157Z,3.33
2022-09-18T18:18:56.808Z,4.37
2022-09-18T18:21:27.291Z,3.30
2022-09-18T18:23:59.420Z,2.60
2022-09-18T18:26:28.971Z,2.70
2022-09-18T18:28:57.206Z,2.60
2022-09-18T18:31:26.059Z,3.53
2022-09-18T18:33:55.447Z,3.30
2022-09-18T18:36:27.067Z,3.10
2022-09-18T18:38:56.607Z,3.27
2022-09-18T18:41:26.655Z,3.37
2022-09-18T18:43:56.770Z,2.80
2022-09-18T18:46:26.398Z,2.40
2022-09-18T18:49:02.790Z,2.73
2022-09-18T18:51:34.590Z,2.83
2022-09-18T18:54:03.595Z,2.20
2022-09-18T18:56:33.507Z,2.40
2022-09-18T18:59:02.928Z,1.97
2022-09-18T19:01:31.962Z,2.30
2022-09-18T19:04:01.790Z,2.03
2022-09-18T19:06:30.086Z,2.57
2022-09-18T19:09:01.064Z,2.00
2022-09-18T19:11:30.019Z,1.90
2022-09-18T19:13:59.829Z,1.80
2022-09-18T19:16:29.300Z,1.70
2022-09-18T19:19:00.220Z,1.77
2022-09-18T19:21:29.265Z,1.90
2022-09-18T19:23:59.867Z,1.43
2022-09-18T19:26:29.511Z,1.83
2022-09-18T19:28:59.105Z,1.63
2022-09-18T19:31:27.868Z,1.57
2022-09-18T19:33:56.124Z,1.70
2022-09-18T19:36:27.404Z,3.63
2022-09-18T19:38:56.986Z,1.67
2022-09-18T19:41:33.449Z,1.53
2022-09-18T19:44:03.061Z,2.00
2022-09-18T19:46:33.175Z,2.27
2022-09-18T19:49:01.160Z,1.53
2022-09-18T19:51:30.084Z,1.50
2022-09-18T19:53:57.942Z,1.90
2022-09-18T19:56:42.257Z,1.70
2022-09-18T19:59:11.017Z,1.57
2022-09-18T20:01:38.781Z,1.70
2022-09-18T20:04:06.716Z,2.00
2022-09-18T20:06:35.092Z,1.50
2022-09-18T20:09:02.821Z,1.20
2022-09-18T20:11:32.007Z,1.40
2022-09-18T20:13:59.754Z,1.30
2022-09-18T20:16:27.931Z,1.50
2022-09-18T20:18:55.777Z,1.83
2022-09-18T20:21:24.065Z,1.70
2022-09-18T20:23:57.664Z,1.40
2022-09-18T20:26:26.023Z,1.47
2022-09-18T20:28:55.370Z,1.50
2022-09-18T20:31:24.572Z,1.70
2022-09-18T20:33:55.575Z,1.70
2022-09-18T20:36:25.627Z,1.70
2022-09-18T20:38:57.798Z,1.90
2022-09-18T20:41:28.087Z,1.40
2022-09-18T20:43:59.245Z,1.63
2022-09-18T20:46:27.511Z,1.60
2022-09-18T20:48:55.961Z,1.70
2022-09-18T20:51:27.678Z,1.57
2022-09-18T20:53:57.264Z,1.93
2022-09-18T20:56:26.895Z,1.50
2022-09-18T20:58:54.836Z,1.73
2022-09-18T21:01:26.704Z,1.93
2022-09-18T21:03:57.057Z,1.57
2022-09-18T21:06:26.069Z,1.67
2022-09-18T21:08:55.507Z,1.20
2022-09-18T21:11:24.883Z,1.60
2022-09-18T21:13:55.756Z,1.63
2022-09-18T21:16:26.618Z,1.33
2022-09-18T21:18:57.643Z,1.60
2022-09-18T21:21:27.419Z,1.13
2022-09-18T21:23:58.461Z,1.57
2022-09-18T21:26:28.593Z,1.40
2022-09-18T21:28:58.204Z,1.40
2022-09-18T21:31:27.757Z,1.60
2022-09-18T21:33:55.827Z,1.70
2022-09-18T21:36:27.470Z,1.40
2022-09-18T21:38:56.195Z,1.67
2022-09-18T21:41:25.561Z,1.43
2022-09-18T21:43:54.076Z,1.60
2022-09-18T21:46:23.920Z,1.50
2022-09-18T21:48:56.316Z,1.70
2022-09-18T21:51:24.098Z,1.60
2022-09-18T21:53:51.822Z,1.70
2022-09-18T21:56:21.585Z,1.77
2022-09-18T21:58:50.230Z,1.33
2022-09-18T22:01:22.892Z,1.47
2022-09-18T22:03:55.487Z,1.50
2022-09-18T22:06:25.965Z,1.53
2022-09-18T22:08:56.324Z,1.63
2022-09-18T22:11:26.856Z,1.40
2022-09-18T22:13:55.659Z,1.30
2022-09-18T22:16:25.988Z,1.50
2022-09-18T22:18:55.139Z,1.80
2022-09-18T22:21:26.627Z,1.40
2022-09-18T22:23:55.983Z,1.50
2022-09-18T22:26:26.265Z,1.47
2022-09-18T22:28:56.447Z,1.67
2022-09-18T22:31:25.608Z,1.83
2022-09-18T22:33:57.650Z,1.67
2022-09-18T22:36:26.665Z,1.87
2022-09-18T22:38:54.756Z,1.77
2022-09-18T22:41:22.793Z,1.80
2022-09-18T22:43:54.449Z,1.90
2022-09-18T22:46:23.791Z,1.60
2022-09-18T22:48:51.832Z,1.63
2022-09-18T22:51:22.480Z,1.90
2022-09-18T22:53:54.172Z,1.70
2022-09-18T22:56:22.950Z,1.73
2022-09-18T22:58:52.280Z,1.50
2022-09-18T23:01:23.595Z,1.80
2022-09-18T23:03:53.692Z,1.87
2022-09-18T23:06:25.582Z,1.83
2022-09-18T23:08:53.873Z,1.90
2022-09-18T23:11:24.540Z,1.80
2022-09-18T23:13:54.123Z,1.90
2022-09-18T23:16:22.956Z,1.70
2022-09-18T23:18:53.151Z,1.67
2022-09-18T23:21:23.784Z,1.83
2022-09-18T23:23:51.523Z,1.60
2022-09-18T23:26:23.242Z,1.67
2022-09-18T23:28:52.634Z,1.67
2022-09-18T23:31:22.453Z,2.00
2022-09-18T23:33:52.704Z,1.30
2022-09-18T23:36:23.717Z,1.40
2022-09-18T23:38:55.516Z,1.40
2022-09-18T23:41:24.026Z,1.80
2022-09-18T23:43:53.700Z,1.60
2022-09-18T23:46:22.193Z,1.50
2022-09-18T23:48:54.938Z,1.47
2022-09-18T23:51:25.411Z,1.77
2022-09-18T23:53:53.802Z,1.40
2022-09-18T23:56:23.418Z,1.50
2022-09-18T23:58:55.296Z,1.50
